Huvudsida
METAR-TAF:

METAR-TAF

Flygplatser :

Visby, Gotland, Sverige

Visby Airport

latitud: 57-40N, longitud: 018-21E, höjd: 51 m

Aktuellt väderrapport

Denna rapport gjordes för 28 minuter sedan, klockan 10:20 UTC
Vind 15 kt från ost/sydost
Temperatur -2°C
Fuktighet 93%
Tryck 987 hPa
Sikt: 5000 m
Mulet på en höjd av 1000 ft

METAR: ESSV 171020Z 12015KT 5000 OVC010 M02/M03 Q0987 R21/79//35

Tid: 11:48 (10:48 UTC)

Väderprognos

Denna rapport gjordes för 2 timmar och 18 minuter sedan, klockan 08:30 UTC
Prognos gäller från 17 kl. 09 UTC till 17 kl. 18 UTC
Vind 16 kt från sydost
Sikt: 5000 m
Spridda moln på en höjd av 800 ft
Brutna moln på en höjd av 1500 ft
lätt snö
Temporärt
från 17 kl. 09 UTC till 17 kl. 18 UTC
Sikt: 1200 m
Mulet på en höjd av 600 ft
snö

TAF: ESSV 170830Z 1709/1718 13016KT 5000 -SN SCT008 BKN015 TEMPO 1709/1718 1200 SN OVC006

Aktuella väderrapporter och prognoser från 4000 flygplatser (METAR- och TAF-rapporter).

De tillgängliga stationerna syns som gula och röda prickar på kartan.

För musen över prickarna för att se namnen på stationerna.

Klicka sedan för att få väderrapporter och prognoser.

För att ändra kartan: Klicka på de gröna knapparna med ett svart kors på för att zooma in; den gröna knappen med ett streck på för att zooma ut; eller på de gröna pilarna för angränsande kartor.


METAR-TAF: